sensor_id;sensor_type;location;lat;lon;timestamp;P1;durP1;ratioP1;P2;durP2;ratioP2
30519;SDS011;17300;50.374;8.006;2022-12-18T00:02:06;19.13;;;13.13;;
30519;SDS011;17300;50.374;8.006;2022-12-18T00:04:32;20.87;;;14.07;;
30519;SDS011;17300;50.374;8.006;2022-12-18T00:07:00;20.53;;;13.97;;
30519;SDS011;17300;50.374;8.006;2022-12-18T00:09:27;17.97;;;12.73;;
30519;SDS011;17300;50.374;8.006;2022-12-18T00:11:54;17.97;;;12.77;;
30519;SDS011;17300;50.374;8.006;2022-12-18T00:14:21;19.27;;;13.50;;
30519;SDS011;17300;50.374;8.006;2022-12-18T00:16:47;20.73;;;13.10;;
30519;SDS011;17300;50.374;8.006;2022-12-18T00:19:14;20.53;;;13.70;;
30519;SDS011;17300;50.374;8.006;2022-12-18T00:21:41;19.07;;;13.30;;
30519;SDS011;17300;50.374;8.006;2022-12-18T00:24:10;21.07;;;13.67;;
30519;SDS011;17300;50.374;8.006;2022-12-18T00:26:38;20.53;;;13.00;;
30519;SDS011;17300;50.374;8.006;2022-12-18T00:29:06;18.73;;;13.27;;
30519;SDS011;17300;50.374;8.006;2022-12-18T00:31:33;18.80;;;13.17;;
30519;SDS011;17300;50.374;8.006;2022-12-18T00:34:00;19.60;;;13.83;;
30519;SDS011;17300;50.374;8.006;2022-12-18T00:36:28;20.63;;;13.57;;
30519;SDS011;17300;50.374;8.006;2022-12-18T00:38:57;21.07;;;14.17;;
30519;SDS011;17300;50.374;8.006;2022-12-18T00:41:26;20.30;;;14.07;;
30519;SDS011;17300;50.374;8.006;2022-12-18T00:44:11;20.53;;;13.43;;
30519;SDS011;17300;50.374;8.006;2022-12-18T00:46:39;19.40;;;13.20;;
30519;SDS011;17300;50.374;8.006;2022-12-18T00:49:07;19.23;;;13.10;;
30519;SDS011;17300;50.374;8.006;2022-12-18T00:51:33;19.10;;;12.80;;
30519;SDS011;17300;50.374;8.006;2022-12-18T00:54:00;19.37;;;13.33;;
30519;SDS011;17300;50.374;8.006;2022-12-18T00:56:28;19.83;;;13.93;;
30519;SDS011;17300;50.374;8.006;2022-12-18T00:58:55;19.33;;;12.97;;
30519;SDS011;17300;50.374;8.006;2022-12-18T01:01:21;19.73;;;13.77;;
30519;SDS011;17300;50.374;8.006;2022-12-18T01:03:48;19.63;;;13.23;;
30519;SDS011;17300;50.374;8.006;2022-12-18T01:06:15;19.13;;;13.03;;
30519;SDS011;17300;50.374;8.006;2022-12-18T01:08:42;19.17;;;13.33;;
30519;SDS011;17300;50.374;8.006;2022-12-18T01:11:10;20.80;;;13.37;;
30519;SDS011;17300;50.374;8.006;2022-12-18T01:13:39;20.07;;;13.10;;
30519;SDS011;17300;50.374;8.006;2022-12-18T01:16:06;17.87;;;12.17;;
30519;SDS011;17300;50.374;8.006;2022-12-18T01:18:33;19.63;;;13.23;;
30519;SDS011;17300;50.374;8.006;2022-12-18T01:21:00;19.23;;;12.77;;
30519;SDS011;17300;50.374;8.006;2022-12-18T01:23:31;20.27;;;14.07;;
30519;SDS011;17300;50.374;8.006;2022-12-18T01:25:57;19.70;;;12.90;;
30519;SDS011;17300;50.374;8.006;2022-12-18T01:28:29;17.63;;;12.30;;
30519;SDS011;17300;50.374;8.006;2022-12-18T01:30:57;20.07;;;12.70;;
30519;SDS011;17300;50.374;8.006;2022-12-18T01:33:24;19.77;;;13.23;;
30519;SDS011;17300;50.374;8.006;2022-12-18T01:35:50;19.23;;;13.47;;
30519;SDS011;17300;50.374;8.006;2022-12-18T01:38:17;20.37;;;13.50;;
30519;SDS011;17300;50.374;8.006;2022-12-18T01:40:43;21.27;;;14.00;;
30519;SDS011;17300;50.374;8.006;2022-12-18T01:43:10;22.17;;;14.07;;
30519;SDS011;17300;50.374;8.006;2022-12-18T01:45:37;22.20;;;14.23;;
30519;SDS011;17300;50.374;8.006;2022-12-18T01:48:05;22.80;;;14.67;;
30519;SDS011;17300;50.374;8.006;2022-12-18T01:50:35;19.77;;;13.37;;
30519;SDS011;17300;50.374;8.006;2022-12-18T01:53:05;19.60;;;13.53;;
30519;SDS011;17300;50.374;8.006;2022-12-18T01:55:36;21.73;;;13.83;;
30519;SDS011;17300;50.374;8.006;2022-12-18T01:58:06;23.27;;;14.13;;
30519;SDS011;17300;50.374;8.006;2022-12-18T02:00:33;22.70;;;13.57;;
30519;SDS011;17300;50.374;8.006;2022-12-18T02:03:00;20.90;;;13.50;;
30519;SDS011;17300;50.374;8.006;2022-12-18T02:05:32;21.70;;;13.50;;
30519;SDS011;17300;50.374;8.006;2022-12-18T02:08:08;20.37;;;14.00;;
30519;SDS011;17300;50.374;8.006;2022-12-18T02:10:42;20.13;;;13.00;;
30519;SDS011;17300;50.374;8.006;2022-12-18T02:13:14;20.10;;;13.40;;
30519;SDS011;17300;50.374;8.006;2022-12-18T02:15:48;18.87;;;12.80;;
30519;SDS011;17300;50.374;8.006;2022-12-18T02:18:21;18.97;;;11.97;;
30519;SDS011;17300;50.374;8.006;2022-12-18T02:20:54;17.77;;;11.90;;
30519;SDS011;17300;50.374;8.006;2022-12-18T02:23:29;18.80;;;12.47;;
30519;SDS011;17300;50.374;8.006;2022-12-18T02:26:12;20.70;;;12.90;;
30519;SDS011;17300;50.374;8.006;2022-12-18T02:28:45;20.10;;;12.80;;
30519;SDS011;17300;50.374;8.006;2022-12-18T02:31:16;21.57;;;12.87;;
30519;SDS011;17300;50.374;8.006;2022-12-18T02:33:47;19.10;;;12.33;;
30519;SDS011;17300;50.374;8.006;2022-12-18T02:36:15;22.07;;;13.93;;
30519;SDS011;17300;50.374;8.006;2022-12-18T02:38:44;20.13;;;13.03;;
30519;SDS011;17300;50.374;8.006;2022-12-18T02:41:14;21.67;;;13.97;;
30519;SDS011;17300;50.374;8.006;2022-12-18T02:43:45;20.53;;;12.70;;
30519;SDS011;17300;50.374;8.006;2022-12-18T02:46:22;20.77;;;12.50;;
30519;SDS011;17300;50.374;8.006;2022-12-18T02:48:53;19.77;;;13.13;;
30519;SDS011;17300;50.374;8.006;2022-12-18T02:51:29;18.40;;;12.50;;
30519;SDS011;17300;50.374;8.006;2022-12-18T02:54:00;20.43;;;12.77;;
30519;SDS011;17300;50.374;8.006;2022-12-18T02:56:34;20.77;;;13.50;;
30519;SDS011;17300;50.374;8.006;2022-12-18T02:59:06;18.10;;;12.57;;
30519;SDS011;17300;50.374;8.006;2022-12-18T03:01:38;19.90;;;12.43;;
30519;SDS011;17300;50.374;8.006;2022-12-18T03:04:16;21.43;;;13.53;;
30519;SDS011;17300;50.374;8.006;2022-12-18T03:06:50;18.93;;;11.97;;
30519;SDS011;17300;50.374;8.006;2022-12-18T03:09:22;22.27;;;13.20;;
30519;SDS011;17300;50.374;8.006;2022-12-18T03:11:55;22.17;;;13.30;;
30519;SDS011;17300;50.374;8.006;2022-12-18T03:14:45;20.37;;;12.53;;
30519;SDS011;17300;50.374;8.006;2022-12-18T03:17:18;18.20;;;12.23;;
30519;SDS011;17300;50.374;8.006;2022-12-18T03:19:46;17.43;;;11.67;;
30519;SDS011;17300;50.374;8.006;2022-12-18T03:22:15;21.67;;;12.83;;
30519;SDS011;17300;50.374;8.006;2022-12-18T03:24:43;20.50;;;12.73;;
30519;SDS011;17300;50.374;8.006;2022-12-18T03:27:13;19.30;;;12.97;;
30519;SDS011;17300;50.374;8.006;2022-12-18T03:29:45;20.70;;;13.20;;
30519;SDS011;17300;50.374;8.006;2022-12-18T03:32:15;20.53;;;13.07;;
30519;SDS011;17300;50.374;8.006;2022-12-18T03:34:45;19.60;;;12.43;;
30519;SDS011;17300;50.374;8.006;2022-12-18T03:37:15;19.70;;;12.47;;
30519;SDS011;17300;50.374;8.006;2022-12-18T03:39:41;18.53;;;12.57;;
30519;SDS011;17300;50.374;8.006;2022-12-18T03:42:10;18.60;;;12.30;;
30519;SDS011;17300;50.374;8.006;2022-12-18T03:44:49;20.30;;;12.57;;
30519;SDS011;17300;50.374;8.006;2022-12-18T03:47:22;20.07;;;13.07;;
30519;SDS011;17300;50.374;8.006;2022-12-18T03:49:55;20.23;;;13.30;;
30519;SDS011;17300;50.374;8.006;2022-12-18T03:52:30;19.33;;;12.40;;
30519;SDS011;17300;50.374;8.006;2022-12-18T03:55:01;19.53;;;13.30;;
30519;SDS011;17300;50.374;8.006;2022-12-18T03:57:32;18.60;;;12.40;;
30519;SDS011;17300;50.374;8.006;2022-12-18T04:00:01;19.53;;;12.80;;
30519;SDS011;17300;50.374;8.006;2022-12-18T04:02:31;19.30;;;12.73;;
30519;SDS011;17300;50.374;8.006;2022-12-18T04:05:00;22.57;;;12.83;;
30519;SDS011;17300;50.374;8.006;2022-12-18T04:07:29;19.07;;;12.63;;
30519;SDS011;17300;50.374;8.006;2022-12-18T04:09:56;19.63;;;12.50;;
30519;SDS011;17300;50.374;8.006;2022-12-18T04:12:26;20.07;;;12.07;;
30519;SDS011;17300;50.374;8.006;2022-12-18T04:14:56;17.63;;;12.07;;
30519;SDS011;17300;50.374;8.006;2022-12-18T04:17:23;17.57;;;11.93;;
30519;SDS011;17300;50.374;8.006;2022-12-18T04:19:50;18.57;;;11.90;;
30519;SDS011;17300;50.374;8.006;2022-12-18T04:22:17;18.93;;;12.03;;
30519;SDS011;17300;50.374;8.006;2022-12-18T04:24:43;16.70;;;11.27;;
30519;SDS011;17300;50.374;8.006;2022-12-18T04:27:10;18.47;;;11.57;;
30519;SDS011;17300;50.374;8.006;2022-12-18T04:29:37;18.57;;;12.10;;
30519;SDS011;17300;50.374;8.006;2022-12-18T04:32:05;16.63;;;11.33;;
30519;SDS011;17300;50.374;8.006;2022-12-18T04:34:32;17.27;;;11.90;;
30519;SDS011;17300;50.374;8.006;2022-12-18T04:36:59;18.67;;;12.10;;
30519;SDS011;17300;50.374;8.006;2022-12-18T04:39:26;18.47;;;11.17;;
30519;SDS011;17300;50.374;8.006;2022-12-18T04:41:52;17.67;;;12.10;;
30519;SDS011;17300;50.374;8.006;2022-12-18T04:44:19;17.23;;;11.63;;
30519;SDS011;17300;50.374;8.006;2022-12-18T04:46:45;17.53;;;11.87;;
30519;SDS011;17300;50.374;8.006;2022-12-18T04:49:13;16.70;;;11.20;;
30519;SDS011;17300;50.374;8.006;2022-12-18T04:51:40;16.57;;;11.57;;
30519;SDS011;17300;50.374;8.006;2022-12-18T04:54:07;17.97;;;11.80;;
30519;SDS011;17300;50.374;8.006;2022-12-18T04:56:33;18.77;;;12.00;;
30519;SDS011;17300;50.374;8.006;2022-12-18T04:59:00;18.33;;;12.13;;
30519;SDS011;17300;50.374;8.006;2022-12-18T05:01:27;19.37;;;12.10;;
30519;SDS011;17300;50.374;8.006;2022-12-18T05:03:53;18.93;;;11.87;;
30519;SDS011;17300;50.374;8.006;2022-12-18T05:06:21;16.83;;;11.50;;
30519;SDS011;17300;50.374;8.006;2022-12-18T05:08:48;17.60;;;11.57;;
30519;SDS011;17300;50.374;8.006;2022-12-18T05:11:15;17.03;;;11.23;;
30519;SDS011;17300;50.374;8.006;2022-12-18T05:13:42;17.87;;;11.73;;
30519;SDS011;17300;50.374;8.006;2022-12-18T05:16:10;16.93;;;11.03;;
30519;SDS011;17300;50.374;8.006;2022-12-18T05:18:36;20.00;;;11.77;;
30519;SDS011;17300;50.374;8.006;2022-12-18T05:21:03;17.63;;;11.27;;
30519;SDS011;17300;50.374;8.006;2022-12-18T05:23:32;18.57;;;11.60;;
30519;SDS011;17300;50.374;8.006;2022-12-18T05:25:59;18.20;;;11.37;;
30519;SDS011;17300;50.374;8.006;2022-12-18T05:28:28;16.03;;;10.83;;
30519;SDS011;17300;50.374;8.006;2022-12-18T05:30:56;17.30;;;11.40;;
30519;SDS011;17300;50.374;8.006;2022-12-18T05:33:25;15.63;;;9.97;;
30519;SDS011;17300;50.374;8.006;2022-12-18T05:35:55;16.40;;;11.13;;
30519;SDS011;17300;50.374;8.006;2022-12-18T05:38:23;18.17;;;11.70;;
30519;SDS011;17300;50.374;8.006;2022-12-18T05:40:52;18.13;;;10.80;;
30519;SDS011;17300;50.374;8.006;2022-12-18T05:43:19;17.77;;;11.77;;
30519;SDS011;17300;50.374;8.006;2022-12-18T05:45:46;17.23;;;10.93;;
30519;SDS011;17300;50.374;8.006;2022-12-18T05:48:14;17.13;;;11.37;;
30519;SDS011;17300;50.374;8.006;2022-12-18T05:50:42;17.27;;;10.73;;
30519;SDS011;17300;50.374;8.006;2022-12-18T05:53:10;17.10;;;11.30;;
30519;SDS011;17300;50.374;8.006;2022-12-18T05:55:39;18.50;;;11.27;;
30519;SDS011;17300;50.374;8.006;2022-12-18T05:58:09;17.67;;;11.03;;
30519;SDS011;17300;50.374;8.006;2022-12-18T06:00:37;18.17;;;10.87;;
30519;SDS011;17300;50.374;8.006;2022-12-18T06:03:05;17.63;;;11.50;;
30519;SDS011;17300;50.374;8.006;2022-12-18T06:05:34;17.00;;;11.37;;
30519;SDS011;17300;50.374;8.006;2022-12-18T06:08:01;16.73;;;11.57;;
30519;SDS011;17300;50.374;8.006;2022-12-18T06:10:28;16.63;;;10.97;;
30519;SDS011;17300;50.374;8.006;2022-12-18T06:12:54;20.00;;;11.97;;
30519;SDS011;17300;50.374;8.006;2022-12-18T06:15:22;18.73;;;11.53;;
30519;SDS011;17300;50.374;8.006;2022-12-18T06:17:49;17.80;;;11.17;;
30519;SDS011;17300;50.374;8.006;2022-12-18T06:20:16;16.27;;;11.23;;
30519;SDS011;17300;50.374;8.006;2022-12-18T06:22:43;19.93;;;12.33;;
30519;SDS011;17300;50.374;8.006;2022-12-18T06:25:10;17.87;;;11.80;;
30519;SDS011;17300;50.374;8.006;2022-12-18T06:27:36;16.90;;;11.43;;
30519;SDS011;17300;50.374;8.006;2022-12-18T06:30:03;18.33;;;11.23;;
30519;SDS011;17300;50.374;8.006;2022-12-18T06:32:33;17.00;;;11.07;;
30519;SDS011;17300;50.374;8.006;2022-12-18T06:34:59;18.97;;;11.10;;
30519;SDS011;17300;50.374;8.006;2022-12-18T06:37:26;17.17;;;10.97;;
30519;SDS011;17300;50.374;8.006;2022-12-18T06:39:53;17.23;;;10.67;;
30519;SDS011;17300;50.374;8.006;2022-12-18T06:42:21;17.20;;;10.80;;
30519;SDS011;17300;50.374;8.006;2022-12-18T06:44:48;18.67;;;11.10;;
30519;SDS011;17300;50.374;8.006;2022-12-18T06:47:15;17.33;;;11.03;;
30519;SDS011;17300;50.374;8.006;2022-12-18T06:49:43;17.50;;;10.70;;
30519;SDS011;17300;50.374;8.006;2022-12-18T06:52:09;16.43;;;11.17;;
30519;SDS011;17300;50.374;8.006;2022-12-18T06:54:36;18.60;;;11.43;;
30519;SDS011;17300;50.374;8.006;2022-12-18T06:57:03;18.63;;;11.23;;
30519;SDS011;17300;50.374;8.006;2022-12-18T06:59:29;16.50;;;10.80;;
30519;SDS011;17300;50.374;8.006;2022-12-18T07:01:56;15.73;;;10.00;;
30519;SDS011;17300;50.374;8.006;2022-12-18T07:04:26;16.73;;;10.40;;
30519;SDS011;17300;50.374;8.006;2022-12-18T07:06:55;16.63;;;10.23;;
30519;SDS011;17300;50.374;8.006;2022-12-18T07:09:22;19.50;;;11.60;;
30519;SDS011;17300;50.374;8.006;2022-12-18T07:11:48;15.40;;;9.83;;
30519;SDS011;17300;50.374;8.006;2022-12-18T07:14:15;16.90;;;10.57;;
30519;SDS011;17300;50.374;8.006;2022-12-18T07:16:42;17.37;;;11.03;;
30519;SDS011;17300;50.374;8.006;2022-12-18T07:19:09;18.90;;;11.83;;
30519;SDS011;17300;50.374;8.006;2022-12-18T07:21:36;17.73;;;10.57;;
30519;SDS011;17300;50.374;8.006;2022-12-18T07:24:04;21.27;;;11.77;;
30519;SDS011;17300;50.374;8.006;2022-12-18T07:26:32;15.67;;;9.67;;
30519;SDS011;17300;50.374;8.006;2022-12-18T07:28:58;17.47;;;11.13;;
30519;SDS011;17300;50.374;8.006;2022-12-18T07:31:25;17.87;;;10.93;;
30519;SDS011;17300;50.374;8.006;2022-12-18T07:33:52;18.17;;;11.30;;
30519;SDS011;17300;50.374;8.006;2022-12-18T07:36:19;16.03;;;10.90;;
30519;SDS011;17300;50.374;8.006;2022-12-18T07:38:46;16.67;;;10.63;;
30519;SDS011;17300;50.374;8.006;2022-12-18T07:41:15;17.17;;;11.23;;
30519;SDS011;17300;50.374;8.006;2022-12-18T07:43:42;19.27;;;11.60;;
30519;SDS011;17300;50.374;8.006;2022-12-18T07:46:08;17.83;;;11.57;;
30519;SDS011;17300;50.374;8.006;2022-12-18T07:48:36;18.27;;;11.13;;
30519;SDS011;17300;50.374;8.006;2022-12-18T07:51:04;18.00;;;11.10;;
30519;SDS011;17300;50.374;8.006;2022-12-18T07:53:31;18.40;;;10.70;;
30519;SDS011;17300;50.374;8.006;2022-12-18T07:56:00;16.70;;;11.63;;
30519;SDS011;17300;50.374;8.006;2022-12-18T07:58:29;17.97;;;11.33;;
30519;SDS011;17300;50.374;8.006;2022-12-18T08:01:01;18.13;;;12.00;;
30519;SDS011;17300;50.374;8.006;2022-12-18T08:03:29;17.07;;;11.07;;
30519;SDS011;17300;50.374;8.006;2022-12-18T08:05:57;20.50;;;11.97;;
30519;SDS011;17300;50.374;8.006;2022-12-18T08:08:25;20.53;;;13.10;;
30519;SDS011;17300;50.374;8.006;2022-12-18T08:10:51;24.17;;;14.20;;
30519;SDS011;17300;50.374;8.006;2022-12-18T08:13:18;20.23;;;13.47;;
30519;SDS011;17300;50.374;8.006;2022-12-18T08:15:46;19.93;;;13.07;;
30519;SDS011;17300;50.374;8.006;2022-12-18T08:18:21;20.30;;;13.20;;
30519;SDS011;17300;50.374;8.006;2022-12-18T08:20:48;19.83;;;13.17;;
30519;SDS011;17300;50.374;8.006;2022-12-18T08:23:14;21.47;;;12.90;;
30519;SDS011;17300;50.374;8.006;2022-12-18T08:25:41;22.27;;;13.57;;
30519;SDS011;17300;50.374;8.006;2022-12-18T08:28:08;19.37;;;13.13;;
30519;SDS011;17300;50.374;8.006;2022-12-18T08:30:35;21.03;;;13.23;;
30519;SDS011;17300;50.374;8.006;2022-12-18T08:33:03;19.30;;;13.20;;
30519;SDS011;17300;50.374;8.006;2022-12-18T08:35:34;18.63;;;12.90;;
30519;SDS011;17300;50.374;8.006;2022-12-18T08:38:01;20.47;;;12.97;;
30519;SDS011;17300;50.374;8.006;2022-12-18T08:40:28;18.27;;;12.53;;
30519;SDS011;17300;50.374;8.006;2022-12-18T08:42:54;20.50;;;13.10;;
30519;SDS011;17300;50.374;8.006;2022-12-18T08:45:39;19.90;;;13.33;;
30519;SDS011;17300;50.374;8.006;2022-12-18T08:48:07;21.03;;;13.77;;
30519;SDS011;17300;50.374;8.006;2022-12-18T08:50:33;19.27;;;13.47;;
30519;SDS011;17300;50.374;8.006;2022-12-18T08:53:00;21.00;;;13.40;;
30519;SDS011;17300;50.374;8.006;2022-12-18T08:55:27;20.30;;;13.17;;
30519;SDS011;17300;50.374;8.006;2022-12-18T08:57:54;22.73;;;14.00;;
30519;SDS011;17300;50.374;8.006;2022-12-18T09:00:20;22.23;;;14.77;;
30519;SDS011;17300;50.374;8.006;2022-12-18T09:02:47;22.40;;;14.30;;
30519;SDS011;17300;50.374;8.006;2022-12-18T09:05:15;21.33;;;13.67;;
30519;SDS011;17300;50.374;8.006;2022-12-18T09:07:42;20.80;;;14.30;;
30519;SDS011;17300;50.374;8.006;2022-12-18T09:10:08;20.80;;;13.70;;
30519;SDS011;17300;50.374;8.006;2022-12-18T09:12:35;20.77;;;13.83;;
30519;SDS011;17300;50.374;8.006;2022-12-18T09:15:02;22.70;;;14.00;;
30519;SDS011;17300;50.374;8.006;2022-12-18T09:17:29;19.97;;;13.73;;
30519;SDS011;17300;50.374;8.006;2022-12-18T09:19:56;18.67;;;13.13;;
30519;SDS011;17300;50.374;8.006;2022-12-18T09:22:24;20.43;;;14.03;;
30519;SDS011;17300;50.374;8.006;2022-12-18T09:24:51;20.83;;;13.87;;
30519;SDS011;17300;50.374;8.006;2022-12-18T09:27:17;20.73;;;14.07;;
30519;SDS011;17300;50.374;8.006;2022-12-18T09:29:44;19.93;;;13.37;;
30519;SDS011;17300;50.374;8.006;2022-12-18T09:32:10;19.43;;;13.60;;
30519;SDS011;17300;50.374;8.006;2022-12-18T09:34:37;20.57;;;13.97;;
30519;SDS011;17300;50.374;8.006;2022-12-18T09:37:04;20.90;;;13.70;;
30519;SDS011;17300;50.374;8.006;2022-12-18T09:39:32;19.93;;;13.50;;
30519;SDS011;17300;50.374;8.006;2022-12-18T09:41:59;18.70;;;13.33;;
30519;SDS011;17300;50.374;8.006;2022-12-18T09:44:27;19.03;;;13.57;;
30519;SDS011;17300;50.374;8.006;2022-12-18T09:46:59;18.63;;;12.93;;
30519;SDS011;17300;50.374;8.006;2022-12-18T09:49:33;16.70;;;12.47;;
30519;SDS011;17300;50.374;8.006;2022-12-18T09:52:04;17.23;;;12.73;;
30519;SDS011;17300;50.374;8.006;2022-12-18T09:54:38;19.20;;;12.87;;
30519;SDS011;17300;50.374;8.006;2022-12-18T09:57:06;19.20;;;13.37;;
30519;SDS011;17300;50.374;8.006;2022-12-18T09:59:39;18.30;;;13.60;;
30519;SDS011;17300;50.374;8.006;2022-12-18T10:02:12;18.93;;;12.27;;
30519;SDS011;17300;50.374;8.006;2022-12-18T10:04:41;17.77;;;12.73;;
30519;SDS011;17300;50.374;8.006;2022-12-18T10:07:09;18.97;;;13.23;;
30519;SDS011;17300;50.374;8.006;2022-12-18T10:09:43;18.33;;;13.80;;
30519;SDS011;17300;50.374;8.006;2022-12-18T10:12:22;20.83;;;13.57;;
30519;SDS011;17300;50.374;8.006;2022-12-18T10:14:55;19.87;;;14.37;;
30519;SDS011;17300;50.374;8.006;2022-12-18T10:17:28;18.57;;;14.10;;
30519;SDS011;17300;50.374;8.006;2022-12-18T10:20:02;19.70;;;14.50;;
30519;SDS011;17300;50.374;8.006;2022-12-18T10:22:38;19.70;;;14.50;;
30519;SDS011;17300;50.374;8.006;2022-12-18T10:25:17;18.77;;;13.77;;
30519;SDS011;17300;50.374;8.006;2022-12-18T10:27:47;16.67;;;12.33;;
30519;SDS011;17300;50.374;8.006;2022-12-18T10:30:19;18.30;;;12.63;;
30519;SDS011;17300;50.374;8.006;2022-12-18T10:32:47;16.70;;;12.47;;
30519;SDS011;17300;50.374;8.006;2022-12-18T10:35:16;15.20;;;11.70;;
30519;SDS011;17300;50.374;8.006;2022-12-18T10:37:59;16.73;;;12.23;;
30519;SDS011;17300;50.374;8.006;2022-12-18T10:40:29;17.13;;;12.00;;
30519;SDS011;17300;50.374;8.006;2022-12-18T10:43:05;17.00;;;12.70;;
30519;SDS011;17300;50.374;8.006;2022-12-18T10:45:38;16.57;;;11.93;;
30519;SDS011;17300;50.374;8.006;2022-12-18T10:48:16;17.60;;;12.43;;
30519;SDS011;17300;50.374;8.006;2022-12-18T10:50:46;15.70;;;12.10;;
30519;SDS011;17300;50.374;8.006;2022-12-18T10:53:18;16.80;;;12.67;;
30519;SDS011;17300;50.374;8.006;2022-12-18T10:55:48;16.57;;;12.47;;
30519;SDS011;17300;50.374;8.006;2022-12-18T10:58:20;16.77;;;12.73;;
30519;SDS011;17300;50.374;8.006;2022-12-18T11:01:01;18.20;;;12.97;;
30519;SDS011;17300;50.374;8.006;2022-12-18T11:03:31;17.90;;;13.03;;
30519;SDS011;17300;50.374;8.006;2022-12-18T11:06:04;16.17;;;12.20;;
30519;SDS011;17300;50.374;8.006;2022-12-18T11:08:35;15.70;;;12.00;;
30519;SDS011;17300;50.374;8.006;2022-12-18T11:11:04;16.93;;;12.60;;
30519;SDS011;17300;50.374;8.006;2022-12-18T11:13:41;16.73;;;12.40;;
30519;SDS011;17300;50.374;8.006;2022-12-18T11:16:17;16.80;;;12.40;;
30519;SDS011;17300;50.374;8.006;2022-12-18T11:18:44;17.50;;;13.00;;
30519;SDS011;17300;50.374;8.006;2022-12-18T11:21:11;17.17;;;12.60;;
30519;SDS011;17300;50.374;8.006;2022-12-18T11:23:44;15.77;;;12.13;;
30519;SDS011;17300;50.374;8.006;2022-12-18T11:26:15;16.13;;;11.83;;
30519;SDS011;17300;50.374;8.006;2022-12-18T11:28:43;16.17;;;12.20;;
30519;SDS011;17300;50.374;8.006;2022-12-18T11:31:17;16.40;;;12.90;;
30519;SDS011;17300;50.374;8.006;2022-12-18T11:33:51;16.60;;;12.60;;
30519;SDS011;17300;50.374;8.006;2022-12-18T11:36:22;16.33;;;12.80;;
30519;SDS011;17300;50.374;8.006;2022-12-18T11:38:49;16.80;;;12.70;;
30519;SDS011;17300;50.374;8.006;2022-12-18T11:41:23;17.83;;;12.63;;
30519;SDS011;17300;50.374;8.006;2022-12-18T11:44:14;17.03;;;12.93;;
30519;SDS011;17300;50.374;8.006;2022-12-18T11:46:49;17.73;;;13.03;;
30519;SDS011;17300;50.374;8.006;2022-12-18T11:49:22;16.70;;;13.07;;
30519;SDS011;17300;50.374;8.006;2022-12-18T11:51:53;16.87;;;12.77;;
30519;SDS011;17300;50.374;8.006;2022-12-18T11:54:24;16.77;;;12.77;;
30519;SDS011;17300;50.374;8.006;2022-12-18T11:56:53;19.67;;;13.73;;
30519;SDS011;17300;50.374;8.006;2022-12-18T11:59:27;17.90;;;13.23;;
30519;SDS011;17300;50.374;8.006;2022-12-18T12:02:09;15.50;;;11.90;;
30519;SDS011;17300;50.374;8.006;2022-12-18T12:04:50;18.97;;;13.57;;
30519;SDS011;17300;50.374;8.006;2022-12-18T12:07:34;19.87;;;12.97;;
30519;SDS011;17300;50.374;8.006;2022-12-18T12:10:14;18.07;;;12.47;;
30519;SDS011;17300;50.374;8.006;2022-12-18T12:12:55;19.13;;;13.87;;
30519;SDS011;17300;50.374;8.006;2022-12-18T12:15:32;16.50;;;12.60;;
30519;SDS011;17300;50.374;8.006;2022-12-18T12:18:07;18.07;;;13.30;;
30519;SDS011;17300;50.374;8.006;2022-12-18T12:20:42;16.83;;;12.97;;
30519;SDS011;17300;50.374;8.006;2022-12-18T12:23:15;17.13;;;13.37;;
30519;SDS011;17300;50.374;8.006;2022-12-18T12:25:49;18.77;;;13.37;;
30519;SDS011;17300;50.374;8.006;2022-12-18T12:28:26;18.23;;;13.90;;
30519;SDS011;17300;50.374;8.006;2022-12-18T12:31:15;19.63;;;14.63;;
30519;SDS011;17300;50.374;8.006;2022-12-18T12:33:52;19.90;;;14.43;;
30519;SDS011;17300;50.374;8.006;2022-12-18T12:36:29;19.40;;;14.27;;
30519;SDS011;17300;50.374;8.006;2022-12-18T12:39:05;19.70;;;13.07;;
30519;SDS011;17300;50.374;8.006;2022-12-18T12:41:35;19.33;;;14.33;;
30519;SDS011;17300;50.374;8.006;2022-12-18T12:44:39;17.13;;;13.43;;
30519;SDS011;17300;50.374;8.006;2022-12-18T12:47:11;17.23;;;13.40;;
30519;SDS011;17300;50.374;8.006;2022-12-18T12:49:44;19.33;;;14.27;;
30519;SDS011;17300;50.374;8.006;2022-12-18T12:52:14;20.17;;;14.13;;
30519;SDS011;17300;50.374;8.006;2022-12-18T12:54:48;18.13;;;13.53;;
30519;SDS011;17300;50.374;8.006;2022-12-18T12:57:16;17.33;;;13.57;;
30519;SDS011;17300;50.374;8.006;2022-12-18T12:59:49;18.57;;;14.00;;
30519;SDS011;17300;50.374;8.006;2022-12-18T13:02:25;19.47;;;14.37;;
30519;SDS011;17300;50.374;8.006;2022-12-18T13:04:56;19.10;;;14.77;;
30519;SDS011;17300;50.374;8.006;2022-12-18T13:07:28;18.67;;;14.50;;
30519;SDS011;17300;50.374;8.006;2022-12-18T13:10:12;20.27;;;15.23;;
30519;SDS011;17300;50.374;8.006;2022-12-18T13:12:58;19.57;;;15.23;;
30519;SDS011;17300;50.374;8.006;2022-12-18T13:15:32;20.23;;;14.77;;
30519;SDS011;17300;50.374;8.006;2022-12-18T13:20:50;20.37;;;15.80;;
30519;SDS011;17300;50.374;8.006;2022-12-18T13:23:36;21.23;;;15.97;;
30519;SDS011;17300;50.374;8.006;2022-12-18T13:26:28;20.83;;;15.80;;
30519;SDS011;17300;50.374;8.006;2022-12-18T13:28:59;19.27;;;14.93;;
30519;SDS011;17300;50.374;8.006;2022-12-18T13:34:26;19.80;;;15.13;;
30519;SDS011;17300;50.374;8.006;2022-12-18T13:36:56;20.97;;;15.63;;
30519;SDS011;17300;50.374;8.006;2022-12-18T13:39:44;20.00;;;14.87;;
30519;SDS011;17300;50.374;8.006;2022-12-18T13:45:37;20.07;;;15.47;;
30519;SDS011;17300;50.374;8.006;2022-12-18T13:48:17;20.30;;;15.03;;
30519;SDS011;17300;50.374;8.006;2022-12-18T13:50:52;23.10;;;17.17;;
30519;SDS011;17300;50.374;8.006;2022-12-18T13:53:23;23.47;;;16.87;;
30519;SDS011;17300;50.374;8.006;2022-12-18T13:55:54;21.13;;;16.13;;
30519;SDS011;17300;50.374;8.006;2022-12-18T13:58:21;23.93;;;16.97;;
30519;SDS011;17300;50.374;8.006;2022-12-18T14:00:48;22.77;;;17.17;;
30519;SDS011;17300;50.374;8.006;2022-12-18T14:03:16;21.67;;;16.27;;
30519;SDS011;17300;50.374;8.006;2022-12-18T14:05:45;23.33;;;16.37;;
30519;SDS011;17300;50.374;8.006;2022-12-18T14:08:18;24.27;;;17.63;;
30519;SDS011;17300;50.374;8.006;2022-12-18T14:10:48;23.03;;;16.83;;
30519;SDS011;17300;50.374;8.006;2022-12-18T14:13:20;25.20;;;18.60;;
30519;SDS011;17300;50.374;8.006;2022-12-18T14:15:50;23.07;;;17.23;;
30519;SDS011;17300;50.374;8.006;2022-12-18T14:18:19;24.67;;;17.67;;
30519;SDS011;17300;50.374;8.006;2022-12-18T14:20:48;24.63;;;17.63;;
30519;SDS011;17300;50.374;8.006;2022-12-18T14:23:28;26.07;;;17.90;;
30519;SDS011;17300;50.374;8.006;2022-12-18T14:25:56;26.43;;;17.57;;
30519;SDS011;17300;50.374;8.006;2022-12-18T14:28:25;23.60;;;17.50;;
30519;SDS011;17300;50.374;8.006;2022-12-18T14:30:53;23.90;;;17.63;;
30519;SDS011;17300;50.374;8.006;2022-12-18T14:33:21;24.10;;;17.43;;
30519;SDS011;17300;50.374;8.006;2022-12-18T14:35:53;25.20;;;17.53;;
30519;SDS011;17300;50.374;8.006;2022-12-18T14:38:26;24.27;;;16.53;;
30519;SDS011;17300;50.374;8.006;2022-12-18T14:40:55;23.13;;;17.00;;
30519;SDS011;17300;50.374;8.006;2022-12-18T14:43:25;23.57;;;16.97;;
30519;SDS011;17300;50.374;8.006;2022-12-18T14:45:53;24.67;;;16.90;;
30519;SDS011;17300;50.374;8.006;2022-12-18T14:48:33;25.47;;;16.87;;